sensor_id;sensor_type;location;lat;lon;timestamp;temperature;humidity
22544;DHT22;11438;52.044;8.716;2022-12-20T00:01:53;11.00;99.90
22544;DHT22;11438;52.044;8.716;2022-12-20T00:04:19;11.00;99.90
22544;DHT22;11438;52.044;8.716;2022-12-20T00:06:44;11.00;99.90
22544;DHT22;11438;52.044;8.716;2022-12-20T00:09:10;11.10;99.90
22544;DHT22;11438;52.044;8.716;2022-12-20T00:11:38;11.00;99.90
22544;DHT22;11438;52.044;8.716;2022-12-20T00:14:04;11.00;99.90
22544;DHT22;11438;52.044;8.716;2022-12-20T00:16:29;11.00;99.90
22544;DHT22;11438;52.044;8.716;2022-12-20T00:19:00;11.10;99.90
22544;DHT22;11438;52.044;8.716;2022-12-20T00:21:26;11.10;99.90
22544;DHT22;11438;52.044;8.716;2022-12-20T00:23:53;11.10;99.90
22544;DHT22;11438;52.044;8.716;2022-12-20T00:26:21;11.10;99.90
22544;DHT22;11438;52.044;8.716;2022-12-20T00:28:47;11.10;99.90
22544;DHT22;11438;52.044;8.716;2022-12-20T00:31:15;11.10;99.90
22544;DHT22;11438;52.044;8.716;2022-12-20T00:33:45;11.10;99.90
22544;DHT22;11438;52.044;8.716;2022-12-20T00:36:11;11.10;99.90
22544;DHT22;11438;52.044;8.716;2022-12-20T00:38:37;11.20;99.90
22544;DHT22;11438;52.044;8.716;2022-12-20T00:41:08;11.20;99.90
22544;DHT22;11438;52.044;8.716;2022-12-20T00:43:34;11.20;99.90
22544;DHT22;11438;52.044;8.716;2022-12-20T00:46:01;11.20;99.90
22544;DHT22;11438;52.044;8.716;2022-12-20T00:48:27;11.20;99.90
22544;DHT22;11438;52.044;8.716;2022-12-20T00:51:01;11.20;99.90
22544;DHT22;11438;52.044;8.716;2022-12-20T00:53:27;11.30;99.90
22544;DHT22;11438;52.044;8.716;2022-12-20T00:55:53;11.30;99.90
22544;DHT22;11438;52.044;8.716;2022-12-20T00:58:19;11.40;99.90
22544;DHT22;11438;52.044;8.716;2022-12-20T01:00:44;11.40;99.90
22544;DHT22;11438;52.044;8.716;2022-12-20T01:03:10;11.40;99.90
22544;DHT22;11438;52.044;8.716;2022-12-20T01:05:36;11.50;99.90
22544;DHT22;11438;52.044;8.716;2022-12-20T01:08:01;11.50;99.90
22544;DHT22;11438;52.044;8.716;2022-12-20T01:10:27;11.60;99.90
22544;DHT22;11438;52.044;8.716;2022-12-20T01:12:53;11.50;99.90
22544;DHT22;11438;52.044;8.716;2022-12-20T01:15:19;11.50;99.70
22544;DHT22;11438;52.044;8.716;2022-12-20T01:17:45;11.50;99.30
22544;DHT22;11438;52.044;8.716;2022-12-20T01:20:11;11.40;98.90
22544;DHT22;11438;52.044;8.716;2022-12-20T01:22:36;11.30;98.70
22544;DHT22;11438;52.044;8.716;2022-12-20T01:25:02;11.30;99.00
22544;DHT22;11438;52.044;8.716;2022-12-20T01:27:28;11.20;98.50
22544;DHT22;11438;52.044;8.716;2022-12-20T01:29:53;11.10;98.60
22544;DHT22;11438;52.044;8.716;2022-12-20T01:32:19;11.10;98.70
22544;DHT22;11438;52.044;8.716;2022-12-20T01:34:45;11.00;98.60
22544;DHT22;11438;52.044;8.716;2022-12-20T01:37:11;10.90;98.60
22544;DHT22;11438;52.044;8.716;2022-12-20T01:39:36;10.90;98.70
22544;DHT22;11438;52.044;8.716;2022-12-20T01:42:02;10.80;98.80
22544;DHT22;11438;52.044;8.716;2022-12-20T01:46:53;10.70;98.90
22544;DHT22;11438;52.044;8.716;2022-12-20T01:49:34;10.70;98.90
22544;DHT22;11438;52.044;8.716;2022-12-20T01:52:13;10.60;98.80
22544;DHT22;11438;52.044;8.716;2022-12-20T01:57:08;10.60;98.80
22544;DHT22;11438;52.044;8.716;2022-12-20T01:59:36;10.50;98.70
22544;DHT22;11438;52.044;8.716;2022-12-20T02:02:07;10.50;98.80
22544;DHT22;11438;52.044;8.716;2022-12-20T02:04:34;10.40;99.30
22544;DHT22;11438;52.044;8.716;2022-12-20T02:07:00;10.40;99.00
22544;DHT22;11438;52.044;8.716;2022-12-20T02:09:27;10.40;99.20
22544;DHT22;11438;52.044;8.716;2022-12-20T02:12:08;10.40;99.40
22544;DHT22;11438;52.044;8.716;2022-12-20T02:28:26;10.40;99.90
22544;DHT22;11438;52.044;8.716;2022-12-20T02:30:55;10.50;99.90
22544;DHT22;11438;52.044;8.716;2022-12-20T02:33:24;10.50;99.90
22544;DHT22;11438;52.044;8.716;2022-12-20T02:35:51;10.60;99.90
22544;DHT22;11438;52.044;8.716;2022-12-20T02:38:36;10.60;99.90
22544;DHT22;11438;52.044;8.716;2022-12-20T02:43:32;10.80;99.90
22544;DHT22;11438;52.044;8.716;2022-12-20T02:46:18;10.80;99.90
22544;DHT22;11438;52.044;8.716;2022-12-20T02:48:46;10.90;99.90
22544;DHT22;11438;52.044;8.716;2022-12-20T02:51:14;11.00;99.90
22544;DHT22;11438;52.044;8.716;2022-12-20T02:53:41;11.10;99.90
22544;DHT22;11438;52.044;8.716;2022-12-20T02:56:49;11.10;99.90
22544;DHT22;11438;52.044;8.716;2022-12-20T02:59:29;11.20;99.90
22544;DHT22;11438;52.044;8.716;2022-12-20T03:01:55;11.30;99.90
22544;DHT22;11438;52.044;8.716;2022-12-20T03:04:27;11.40;99.90
22544;DHT22;11438;52.044;8.716;2022-12-20T03:06:59;11.40;99.90
22544;DHT22;11438;52.044;8.716;2022-12-20T03:09:25;11.50;99.90
22544;DHT22;11438;52.044;8.716;2022-12-20T03:11:51;11.50;99.90
22544;DHT22;11438;52.044;8.716;2022-12-20T03:14:17;11.50;99.90
22544;DHT22;11438;52.044;8.716;2022-12-20T03:16:43;11.60;99.90
22544;DHT22;11438;52.044;8.716;2022-12-20T03:19:09;11.70;99.90
22544;DHT22;11438;52.044;8.716;2022-12-20T03:21:34;11.70;99.90
22544;DHT22;11438;52.044;8.716;2022-12-20T03:24:00;11.70;99.90
22544;DHT22;11438;52.044;8.716;2022-12-20T03:26:25;11.70;99.90
22544;DHT22;11438;52.044;8.716;2022-12-20T03:28:51;11.80;99.90
22544;DHT22;11438;52.044;8.716;2022-12-20T03:31:16;11.80;99.90
22544;DHT22;11438;52.044;8.716;2022-12-20T03:33:42;11.90;99.90
22544;DHT22;11438;52.044;8.716;2022-12-20T03:36:08;11.90;99.90
22544;DHT22;11438;52.044;8.716;2022-12-20T03:38:33;12.00;99.90
22544;DHT22;11438;52.044;8.716;2022-12-20T03:40:59;12.00;99.90
22544;DHT22;11438;52.044;8.716;2022-12-20T03:43:24;12.00;99.90
22544;DHT22;11438;52.044;8.716;2022-12-20T03:45:50;12.10;99.90
22544;DHT22;11438;52.044;8.716;2022-12-20T03:48:15;12.10;99.90
22544;DHT22;11438;52.044;8.716;2022-12-20T03:50:41;12.10;99.90
22544;DHT22;11438;52.044;8.716;2022-12-20T03:53:06;12.10;99.90
22544;DHT22;11438;52.044;8.716;2022-12-20T03:55:32;12.20;99.90
22544;DHT22;11438;52.044;8.716;2022-12-20T03:57:57;12.20;99.90
22544;DHT22;11438;52.044;8.716;2022-12-20T04:00:23;12.30;99.90
22544;DHT22;11438;52.044;8.716;2022-12-20T04:02:49;12.30;99.90
22544;DHT22;11438;52.044;8.716;2022-12-20T04:05:14;12.30;99.90
22544;DHT22;11438;52.044;8.716;2022-12-20T04:07:41;12.30;99.90
22544;DHT22;11438;52.044;8.716;2022-12-20T04:10:07;12.40;99.90
22544;DHT22;11438;52.044;8.716;2022-12-20T04:12:33;12.40;99.90
22544;DHT22;11438;52.044;8.716;2022-12-20T04:14:58;12.40;99.90
22544;DHT22;11438;52.044;8.716;2022-12-20T04:17:24;12.40;99.90
22544;DHT22;11438;52.044;8.716;2022-12-20T04:19:49;12.40;99.90
22544;DHT22;11438;52.044;8.716;2022-12-20T04:22:15;12.40;99.90
22544;DHT22;11438;52.044;8.716;2022-12-20T04:24:40;12.40;99.90
22544;DHT22;11438;52.044;8.716;2022-12-20T04:27:06;12.40;99.90
22544;DHT22;11438;52.044;8.716;2022-12-20T04:29:31;12.40;99.90
22544;DHT22;11438;52.044;8.716;2022-12-20T04:31:57;12.40;99.90
22544;DHT22;11438;52.044;8.716;2022-12-20T04:34:22;12.50;99.90
22544;DHT22;11438;52.044;8.716;2022-12-20T04:36:48;12.40;99.90
22544;DHT22;11438;52.044;8.716;2022-12-20T04:39:13;12.50;99.90
22544;DHT22;11438;52.044;8.716;2022-12-20T04:41:39;12.50;99.90
22544;DHT22;11438;52.044;8.716;2022-12-20T04:44:04;12.40;99.90
22544;DHT22;11438;52.044;8.716;2022-12-20T04:46:30;12.40;99.90
22544;DHT22;11438;52.044;8.716;2022-12-20T04:48:56;12.40;99.90
22544;DHT22;11438;52.044;8.716;2022-12-20T04:51:21;12.40;99.90
22544;DHT22;11438;52.044;8.716;2022-12-20T04:53:47;12.40;99.90
22544;DHT22;11438;52.044;8.716;2022-12-20T04:56:21;12.40;99.90
22544;DHT22;11438;52.044;8.716;2022-12-20T04:58:49;12.40;99.90
22544;DHT22;11438;52.044;8.716;2022-12-20T05:01:15;12.40;99.90
22544;DHT22;11438;52.044;8.716;2022-12-20T05:03:42;12.40;99.90
22544;DHT22;11438;52.044;8.716;2022-12-20T05:06:08;12.40;99.90
22544;DHT22;11438;52.044;8.716;2022-12-20T05:08:34;12.30;99.90
22544;DHT22;11438;52.044;8.716;2022-12-20T05:11:01;12.30;99.90
22544;DHT22;11438;52.044;8.716;2022-12-20T05:13:26;12.30;99.90
22544;DHT22;11438;52.044;8.716;2022-12-20T05:15:54;12.30;99.90
22544;DHT22;11438;52.044;8.716;2022-12-20T05:18:20;12.30;99.90
22544;DHT22;11438;52.044;8.716;2022-12-20T05:20:46;12.30;99.90
22544;DHT22;11438;52.044;8.716;2022-12-20T05:23:12;12.30;99.90
22544;DHT22;11438;52.044;8.716;2022-12-20T05:25:56;12.30;99.90
22544;DHT22;11438;52.044;8.716;2022-12-20T05:28:41;12.30;99.90
22544;DHT22;11438;52.044;8.716;2022-12-20T05:31:07;12.30;99.90
22544;DHT22;11438;52.044;8.716;2022-12-20T05:33:32;12.30;99.90
22544;DHT22;11438;52.044;8.716;2022-12-20T05:35:58;12.30;99.90
22544;DHT22;11438;52.044;8.716;2022-12-20T05:38:23;12.30;99.90
22544;DHT22;11438;52.044;8.716;2022-12-20T05:40:49;12.30;99.90
22544;DHT22;11438;52.044;8.716;2022-12-20T05:43:16;12.20;99.90
22544;DHT22;11438;52.044;8.716;2022-12-20T05:45:47;12.30;99.90
22544;DHT22;11438;52.044;8.716;2022-12-20T05:48:13;12.30;99.90
22544;DHT22;11438;52.044;8.716;2022-12-20T05:50:39;12.30;99.90
22544;DHT22;11438;52.044;8.716;2022-12-20T05:53:05;12.30;99.90
22544;DHT22;11438;52.044;8.716;2022-12-20T05:55:30;12.30;99.90
22544;DHT22;11438;52.044;8.716;2022-12-20T05:57:56;12.30;99.90
22544;DHT22;11438;52.044;8.716;2022-12-20T06:00:21;12.30;99.90
22544;DHT22;11438;52.044;8.716;2022-12-20T06:02:47;12.30;99.90
22544;DHT22;11438;52.044;8.716;2022-12-20T06:05:12;12.30;99.90
22544;DHT22;11438;52.044;8.716;2022-12-20T06:07:39;12.40;99.90
22544;DHT22;11438;52.044;8.716;2022-12-20T06:10:05;12.30;99.90
22544;DHT22;11438;52.044;8.716;2022-12-20T06:12:32;12.30;99.90
22544;DHT22;11438;52.044;8.716;2022-12-20T06:14:59;12.40;99.90
22544;DHT22;11438;52.044;8.716;2022-12-20T06:17:24;12.30;99.90
22544;DHT22;11438;52.044;8.716;2022-12-20T06:19:50;12.30;99.90
22544;DHT22;11438;52.044;8.716;2022-12-20T06:22:15;12.40;99.90
22544;DHT22;11438;52.044;8.716;2022-12-20T06:24:41;12.30;99.90
22544;DHT22;11438;52.044;8.716;2022-12-20T06:27:07;12.40;99.90
22544;DHT22;11438;52.044;8.716;2022-12-20T06:29:32;12.40;99.90
22544;DHT22;11438;52.044;8.716;2022-12-20T06:31:58;12.30;99.90
22544;DHT22;11438;52.044;8.716;2022-12-20T06:34:23;12.40;99.90
22544;DHT22;11438;52.044;8.716;2022-12-20T06:36:49;12.30;99.90
22544;DHT22;11438;52.044;8.716;2022-12-20T06:39:15;12.40;99.90
22544;DHT22;11438;52.044;8.716;2022-12-20T06:41:40;12.40;99.90
22544;DHT22;11438;52.044;8.716;2022-12-20T06:44:06;12.40;99.90
22544;DHT22;11438;52.044;8.716;2022-12-20T06:46:32;12.40;99.90
22544;DHT22;11438;52.044;8.716;2022-12-20T06:48:58;12.40;99.90
22544;DHT22;11438;52.044;8.716;2022-12-20T06:51:24;12.40;99.90
22544;DHT22;11438;52.044;8.716;2022-12-20T06:53:50;12.40;99.90
22544;DHT22;11438;52.044;8.716;2022-12-20T06:56:15;12.40;99.90
22544;DHT22;11438;52.044;8.716;2022-12-20T06:58:41;12.40;99.90
22544;DHT22;11438;52.044;8.716;2022-12-20T07:01:07;12.30;99.90
22544;DHT22;11438;52.044;8.716;2022-12-20T07:03:32;12.40;99.90
22544;DHT22;11438;52.044;8.716;2022-12-20T07:05:58;12.40;99.90
22544;DHT22;11438;52.044;8.716;2022-12-20T07:08:23;12.40;99.90
22544;DHT22;11438;52.044;8.716;2022-12-20T07:10:50;12.40;99.90
22544;DHT22;11438;52.044;8.716;2022-12-20T07:13:17;12.40;99.90
22544;DHT22;11438;52.044;8.716;2022-12-20T07:15:43;12.40;99.90
22544;DHT22;11438;52.044;8.716;2022-12-20T07:18:09;12.40;99.90
22544;DHT22;11438;52.044;8.716;2022-12-20T07:20:34;12.40;99.90
22544;DHT22;11438;52.044;8.716;2022-12-20T07:23:00;12.30;99.90
22544;DHT22;11438;52.044;8.716;2022-12-20T07:25:25;12.40;99.90
22544;DHT22;11438;52.044;8.716;2022-12-20T07:27:51;12.30;99.90
22544;DHT22;11438;52.044;8.716;2022-12-20T07:30:17;12.40;99.90
22544;DHT22;11438;52.044;8.716;2022-12-20T07:32:43;12.40;99.90
22544;DHT22;11438;52.044;8.716;2022-12-20T07:35:10;12.30;99.90
22544;DHT22;11438;52.044;8.716;2022-12-20T07:37:37;12.30;99.80
22544;DHT22;11438;52.044;8.716;2022-12-20T07:40:03;12.30;99.40
22544;DHT22;11438;52.044;8.716;2022-12-20T07:42:29;12.30;99.10
22544;DHT22;11438;52.044;8.716;2022-12-20T07:44:55;12.20;98.70
22544;DHT22;11438;52.044;8.716;2022-12-20T07:47:21;12.20;98.70
22544;DHT22;11438;52.044;8.716;2022-12-20T07:49:46;12.10;98.70
22544;DHT22;11438;52.044;8.716;2022-12-20T07:52:13;12.10;98.70
22544;DHT22;11438;52.044;8.716;2022-12-20T07:54:48;12.00;98.70
22544;DHT22;11438;52.044;8.716;2022-12-20T07:57:21;12.00;98.80
22544;DHT22;11438;52.044;8.716;2022-12-20T07:59:50;11.90;98.90
22544;DHT22;11438;52.044;8.716;2022-12-20T08:02:22;11.90;98.80
22544;DHT22;11438;52.044;8.716;2022-12-20T08:04:49;11.90;98.80
22544;DHT22;11438;52.044;8.716;2022-12-20T08:07:15;11.80;98.80
22544;DHT22;11438;52.044;8.716;2022-12-20T08:09:43;11.80;98.80
22544;DHT22;11438;52.044;8.716;2022-12-20T08:12:10;11.80;98.80
22544;DHT22;11438;52.044;8.716;2022-12-20T08:14:36;11.70;98.70
22544;DHT22;11438;52.044;8.716;2022-12-20T08:17:02;11.70;98.70
22544;DHT22;11438;52.044;8.716;2022-12-20T08:19:28;11.60;98.60
22544;DHT22;11438;52.044;8.716;2022-12-20T08:21:54;11.60;98.60
22544;DHT22;11438;52.044;8.716;2022-12-20T08:24:19;11.60;98.60
22544;DHT22;11438;52.044;8.716;2022-12-20T08:26:45;11.60;98.60
22544;DHT22;11438;52.044;8.716;2022-12-20T08:29:10;11.50;98.70
22544;DHT22;11438;52.044;8.716;2022-12-20T08:31:38;11.50;98.80
22544;DHT22;11438;52.044;8.716;2022-12-20T08:34:04;11.50;98.90
22544;DHT22;11438;52.044;8.716;2022-12-20T08:36:30;11.50;99.00
22544;DHT22;11438;52.044;8.716;2022-12-20T08:38:55;11.50;99.00
22544;DHT22;11438;52.044;8.716;2022-12-20T08:41:21;11.40;99.10
22544;DHT22;11438;52.044;8.716;2022-12-20T08:43:46;11.50;99.20
22544;DHT22;11438;52.044;8.716;2022-12-20T08:46:12;11.40;99.20
22544;DHT22;11438;52.044;8.716;2022-12-20T08:48:38;11.40;99.30
22544;DHT22;11438;52.044;8.716;2022-12-20T08:51:06;11.40;99.30
22544;DHT22;11438;52.044;8.716;2022-12-20T08:53:34;11.40;99.40
22544;DHT22;11438;52.044;8.716;2022-12-20T08:58:34;11.50;99.20
22544;DHT22;11438;52.044;8.716;2022-12-20T09:01:00;11.50;99.20
22544;DHT22;11438;52.044;8.716;2022-12-20T09:03:28;11.40;99.10
22544;DHT22;11438;52.044;8.716;2022-12-20T09:05:54;11.50;99.10
22544;DHT22;11438;52.044;8.716;2022-12-20T09:08:20;11.50;99.10
22544;DHT22;11438;52.044;8.716;2022-12-20T09:10:45;11.50;99.10
22544;DHT22;11438;52.044;8.716;2022-12-20T09:13:11;11.50;99.20
22544;DHT22;11438;52.044;8.716;2022-12-20T09:15:37;11.50;99.20
22544;DHT22;11438;52.044;8.716;2022-12-20T09:18:03;11.60;99.30
22544;DHT22;11438;52.044;8.716;2022-12-20T09:20:30;11.60;99.50
22544;DHT22;11438;52.044;8.716;2022-12-20T09:22:57;11.60;99.70
22544;DHT22;11438;52.044;8.716;2022-12-20T09:25:24;11.60;99.90
22544;DHT22;11438;52.044;8.716;2022-12-20T09:27:50;11.70;99.90
22544;DHT22;11438;52.044;8.716;2022-12-20T09:30:16;11.80;99.90
22544;DHT22;11438;52.044;8.716;2022-12-20T09:32:41;11.80;99.90
22544;DHT22;11438;52.044;8.716;2022-12-20T09:35:07;11.90;99.90
22544;DHT22;11438;52.044;8.716;2022-12-20T09:37:33;11.90;99.90
22544;DHT22;11438;52.044;8.716;2022-12-20T09:39:58;12.00;99.90
22544;DHT22;11438;52.044;8.716;2022-12-20T09:42:26;12.10;99.90
22544;DHT22;11438;52.044;8.716;2022-12-20T09:44:56;12.20;99.90
22544;DHT22;11438;52.044;8.716;2022-12-20T09:47:25;12.30;99.90
22544;DHT22;11438;52.044;8.716;2022-12-20T09:49:54;12.40;99.90
22544;DHT22;11438;52.044;8.716;2022-12-20T10:00:40;12.60;99.90
22544;DHT22;11438;52.044;8.716;2022-12-20T10:03:12;12.70;99.90
22544;DHT22;11438;52.044;8.716;2022-12-20T10:08:42;12.90;99.80
22544;DHT22;11438;52.044;8.716;2022-12-20T10:11:43;12.90;99.70
22544;DHT22;11438;52.044;8.716;2022-12-20T10:14:20;13.00;99.60
22544;DHT22;11438;52.044;8.716;2022-12-20T10:16:54;13.10;99.60
22544;DHT22;11438;52.044;8.716;2022-12-20T10:22:15;13.20;99.50
22544;DHT22;11438;52.044;8.716;2022-12-20T10:25:05;13.30;99.50
22544;DHT22;11438;52.044;8.716;2022-12-20T10:27:40;13.40;99.40
22544;DHT22;11438;52.044;8.716;2022-12-20T10:30:15;13.40;99.40
22544;DHT22;11438;52.044;8.716;2022-12-20T10:32:45;13.50;99.30
22544;DHT22;11438;52.044;8.716;2022-12-20T10:40:34;13.70;99.00
22544;DHT22;11438;52.044;8.716;2022-12-20T10:43:01;13.70;99.00
22544;DHT22;11438;52.044;8.716;2022-12-20T10:45:36;13.80;98.90
22544;DHT22;11438;52.044;8.716;2022-12-20T10:48:50;13.80;98.80
22544;DHT22;11438;52.044;8.716;2022-12-20T10:51:21;13.90;98.70
22544;DHT22;11438;52.044;8.716;2022-12-20T10:53:59;13.90;98.60
22544;DHT22;11438;52.044;8.716;2022-12-20T10:56:31;14.00;98.40
22544;DHT22;11438;52.044;8.716;2022-12-20T10:59:03;14.00;98.30
22544;DHT22;11438;52.044;8.716;2022-12-20T11:01:48;14.00;98.20
22544;DHT22;11438;52.044;8.716;2022-12-20T11:04:31;14.10;98.20
22544;DHT22;11438;52.044;8.716;2022-12-20T11:06:59;14.10;98.10
22544;DHT22;11438;52.044;8.716;2022-12-20T11:09:33;14.10;98.10
22544;DHT22;11438;52.044;8.716;2022-12-20T11:12:11;14.10;97.90
22544;DHT22;11438;52.044;8.716;2022-12-20T11:14:38;14.20;97.90
22544;DHT22;11438;52.044;8.716;2022-12-20T11:17:31;14.20;97.90
22544;DHT22;11438;52.044;8.716;2022-12-20T11:28:37;14.20;97.70
22544;DHT22;11438;52.044;8.716;2022-12-20T11:34:48;14.30;97.70
22544;DHT22;11438;52.044;8.716;2022-12-20T11:37:22;14.30;97.60
22544;DHT22;11438;52.044;8.716;2022-12-20T11:40:25;14.30;97.60
22544;DHT22;11438;52.044;8.716;2022-12-20T11:43:14;14.30;97.60
22544;DHT22;11438;52.044;8.716;2022-12-20T11:46:19;14.40;97.50
22544;DHT22;11438;52.044;8.716;2022-12-20T11:52:12;14.40;97.50
22544;DHT22;11438;52.044;8.716;2022-12-20T11:54:46;14.40;97.60
22544;DHT22;11438;52.044;8.716;2022-12-20T11:57:17;14.50;97.50
22544;DHT22;11438;52.044;8.716;2022-12-20T11:59:53;14.50;97.40
22544;DHT22;11438;52.044;8.716;2022-12-20T12:05:02;14.60;97.30
22544;DHT22;11438;52.044;8.716;2022-12-20T12:07:31;14.60;97.30
22544;DHT22;11438;52.044;8.716;2022-12-20T12:09:59;14.60;97.60
22544;DHT22;11438;52.044;8.716;2022-12-20T12:12:39;14.60;97.30
22544;DHT22;11438;52.044;8.716;2022-12-20T12:15:49;14.60;97.30
22544;DHT22;11438;52.044;8.716;2022-12-20T12:18:30;14.70;97.20
22544;DHT22;11438;52.044;8.716;2022-12-20T12:26:27;14.80;97.20
22544;DHT22;11438;52.044;8.716;2022-12-20T12:28:59;14.80;97.10
22544;DHT22;11438;52.044;8.716;2022-12-20T12:37:16;14.90;96.90
22544;DHT22;11438;52.044;8.716;2022-12-20T12:44:58;14.90;96.80
22544;DHT22;11438;52.044;8.716;2022-12-20T12:47:54;14.90;96.60
22544;DHT22;11438;52.044;8.716;2022-12-20T12:50:28;14.90;96.50
22544;DHT22;11438;52.044;8.716;2022-12-20T12:52:57;14.90;96.50
22544;DHT22;11438;52.044;8.716;2022-12-20T12:55:52;14.90;96.50
22544;DHT22;11438;52.044;8.716;2022-12-20T13:00:51;14.90;96.50
22544;DHT22;11438;52.044;8.716;2022-12-20T13:11:43;14.80;96.40
22544;DHT22;11438;52.044;8.716;2022-12-20T13:21:57;14.80;96.50
22544;DHT22;11438;52.044;8.716;2022-12-20T13:27:35;14.70;96.80
22544;DHT22;11438;52.044;8.716;2022-12-20T13:40:54;14.60;97.00
22544;DHT22;11438;52.044;8.716;2022-12-20T13:45:50;14.60;97.00
22544;DHT22;11438;52.044;8.716;2022-12-20T13:48:24;14.60;96.90
22544;DHT22;11438;52.044;8.716;2022-12-20T13:50:55;14.60;96.90
22544;DHT22;11438;52.044;8.716;2022-12-20T13:53:26;14.50;97.20
22544;DHT22;11438;52.044;8.716;2022-12-20T13:55:52;14.50;96.80
22544;DHT22;11438;52.044;8.716;2022-12-20T13:58:30;14.50;96.90
22544;DHT22;11438;52.044;8.716;2022-12-20T14:01:06;14.50;96.90
22544;DHT22;11438;52.044;8.716;2022-12-20T14:03:40;14.50;97.00
22544;DHT22;11438;52.044;8.716;2022-12-20T14:06:09;14.40;96.90
22544;DHT22;11438;52.044;8.716;2022-12-20T14:08:43;14.40;96.90
22544;DHT22;11438;52.044;8.716;2022-12-20T14:11:21;14.40;97.20
22544;DHT22;11438;52.044;8.716;2022-12-20T14:14:01;14.40;96.80
22544;DHT22;11438;52.044;8.716;2022-12-20T14:16:29;14.40;96.80
22544;DHT22;11438;52.044;8.716;2022-12-20T14:21:21;14.40;96.90
22544;DHT22;11438;52.044;8.716;2022-12-20T14:23:49;14.40;96.90
22544;DHT22;11438;52.044;8.716;2022-12-20T14:26:18;14.40;97.00
22544;DHT22;11438;52.044;8.716;2022-12-20T14:28:47;14.30;96.90
22544;DHT22;11438;52.044;8.716;2022-12-20T14:31:41;14.30;96.90
22544;DHT22;11438;52.044;8.716;2022-12-20T14:36:40;14.30;97.10
22544;DHT22;11438;52.044;8.716;2022-12-20T14:39:26;14.30;97.10
22544;DHT22;11438;52.044;8.716;2022-12-20T14:42:13;14.30;97.20
22544;DHT22;11438;52.044;8.716;2022-12-20T14:44:38;14.30;97.30
22544;DHT22;11438;52.044;8.716;2022-12-20T14:47:26;14.30;97.40
22544;DHT22;11438;52.044;8.716;2022-12-20T14:49:58;14.30;97.50
22544;DHT22;11438;52.044;8.716;2022-12-20T14:52:36;14.40;97.50
22544;DHT22;11438;52.044;8.716;2022-12-20T14:55:17;14.30;97.50
22544;DHT22;11438;52.044;8.716;2022-12-20T14:57:48;14.40;97.60
22544;DHT22;11438;52.044;8.716;2022-12-20T15:00:32;14.40;97.60
22544;DHT22;11438;52.044;8.716;2022-12-20T15:03:14;14.40;97.70
22544;DHT22;11438;52.044;8.716;2022-12-20T15:05:48;14.40;97.70
22544;DHT22;11438;52.044;8.716;2022-12-20T15:08:28;14.40;97.70
22544;DHT22;11438;52.044;8.716;2022-12-20T15:13:42;14.50;97.80
22544;DHT22;11438;52.044;8.716;2022-12-20T15:16:34;14.50;97.80
22544;DHT22;11438;52.044;8.716;2022-12-20T15:19:01;14.50;97.90
22544;DHT22;11438;52.044;8.716;2022-12-20T15:21:35;14.50;97.90
22544;DHT22;11438;52.044;8.716;2022-12-20T15:24:03;14.50;97.90
22544;DHT22;11438;52.044;8.716;2022-12-20T15:26:32;14.50;98.00
22544;DHT22;11438;52.044;8.716;2022-12-20T15:28:58;14.50;98.00
22544;DHT22;11438;52.044;8.716;2022-12-20T15:31:25;14.50;98.20
22544;DHT22;11438;52.044;8.716;2022-12-20T15:33:51;14.50;98.50
22544;DHT22;11438;52.044;8.716;2022-12-20T15:36:27;14.50;98.70
22544;DHT22;11438;52.044;8.716;2022-12-20T15:38:54;14.50;98.90
22544;DHT22;11438;52.044;8.716;2022-12-20T15:41:30;14.60;98.90
22544;DHT22;11438;52.044;8.716;2022-12-20T15:44:04;14.50;99.00
22544;DHT22;11438;52.044;8.716;2022-12-20T15:46:31;14.50;99.20
22544;DHT22;11438;52.044;8.716;2022-12-20T15:48:57;14.50;99.20
22544;DHT22;11438;52.044;8.716;2022-12-20T15:51:36;14.50;99.30
22544;DHT22;11438;52.044;8.716;2022-12-20T15:54:06;14.50;99.40
22544;DHT22;11438;52.044;8.716;2022-12-20T15:56:38;14.50;99.40
22544;DHT22;11438;52.044;8.716;2022-12-20T15:59:03;14.50;99.40
22544;DHT22;11438;52.044;8.716;2022-12-20T16:01:37;14.50;99.40
22544;DHT22;11438;52.044;8.716;2022-12-20T16:04:04;14.50;99.50
22544;DHT22;11438;52.044;8.716;2022-12-20T16:06:29;14.40;99.40
22544;DHT22;11438;52.044;8.716;2022-12-20T16:08:55;14.40;99.40
22544;DHT22;11438;52.044;8.716;2022-12-20T16:11:26;14.40;99.50
22544;DHT22;11438;52.044;8.716;2022-12-20T16:13:53;14.40;99.50
22544;DHT22;11438;52.044;8.716;2022-12-20T16:16:27;14.40;99.50
22544;DHT22;11438;52.044;8.716;2022-12-20T16:18:53;14.40;99.60
22544;DHT22;11438;52.044;8.716;2022-12-20T16:21:22;14.40;99.60
22544;DHT22;11438;52.044;8.716;2022-12-20T16:23:48;14.40;99.60
22544;DHT22;11438;52.044;8.716;2022-12-20T16:26:16;14.30;99.60
22544;DHT22;11438;52.044;8.716;2022-12-20T16:28:43;14.30;99.60
22544;DHT22;11438;52.044;8.716;2022-12-20T16:31:31;14.30;99.70
22544;DHT22;11438;52.044;8.716;2022-12-20T16:34:00;14.30;99.80
22544;DHT22;11438;52.044;8.716;2022-12-20T16:36:27;14.30;99.70
22544;DHT22;11438;52.044;8.716;2022-12-20T16:38:54;14.30;99.80
22544;DHT22;11438;52.044;8.716;2022-12-20T16:41:23;14.30;99.80
22544;DHT22;11438;52.044;8.716;2022-12-20T16:43:49;14.20;99.80
22544;DHT22;11438;52.044;8.716;2022-12-20T16:46:17;14.20;99.80
22544;DHT22;11438;52.044;8.716;2022-12-20T16:48:43;14.20;99.80
22544;DHT22;11438;52.044;8.716;2022-12-20T16:53:55;14.20;99.90
22544;DHT22;11438;52.044;8.716;2022-12-20T16:56:22;14.20;99.80
22544;DHT22;11438;52.044;8.716;2022-12-20T16:58:48;14.20;99.90
22544;DHT22;11438;52.044;8.716;2022-12-20T17:01:20;14.20;99.90
22544;DHT22;11438;52.044;8.716;2022-12-20T17:03:48;14.10;99.90
22544;DHT22;11438;52.044;8.716;2022-12-20T17:06:17;14.20;99.80
22544;DHT22;11438;52.044;8.716;2022-12-20T17:08:44;14.10;99.80
22544;DHT22;11438;52.044;8.716;2022-12-20T17:11:18;14.10;99.80
22544;DHT22;11438;52.044;8.716;2022-12-20T17:13:44;14.10;99.90
22544;DHT22;11438;52.044;8.716;2022-12-20T17:16:11;14.10;99.90
22544;DHT22;11438;52.044;8.716;2022-12-20T17:18:48;14.10;99.90
22544;DHT22;11438;52.044;8.716;2022-12-20T17:23:42;14.10;99.90
22544;DHT22;11438;52.044;8.716;2022-12-20T17:26:11;14.10;99.90
22544;DHT22;11438;52.044;8.716;2022-12-20T17:28:37;14.10;99.90
22544;DHT22;11438;52.044;8.716;2022-12-20T17:31:10;14.10;99.90
22544;DHT22;11438;52.044;8.716;2022-12-20T17:33:41;14.10;99.90
22544;DHT22;11438;52.044;8.716;2022-12-20T17:36:07;14.10;99.90
22544;DHT22;11438;52.044;8.716;2022-12-20T17:38:32;14.10;99.80
22544;DHT22;11438;52.044;8.716;2022-12-20T17:40:58;14.10;99.90
22544;DHT22;11438;52.044;8.716;2022-12-20T17:43:23;14.10;99.90
22544;DHT22;11438;52.044;8.716;2022-12-20T17:45:49;14.10;99.90
22544;DHT22;11438;52.044;8.716;2022-12-20T17:48:14;14.10;99.90
22544;DHT22;11438;52.044;8.716;2022-12-20T17:50:40;14.10;99.90